createdAt,value
2022-12-09T00:00:44.195Z,99409.31
2022-12-09T00:03:46.581Z,99409.78
2022-12-09T00:06:48.756Z,99399.09
2022-12-09T00:09:51.879Z,99403.66
2022-12-09T00:12:55.130Z,99415.16
2022-12-09T00:15:57.032Z,99403.25
2022-12-09T00:18:59.117Z,99398.91
2022-12-09T00:22:01.093Z,99393.44
2022-12-09T00:25:04.866Z,99393.31
2022-12-09T00:28:06.591Z,99395.75
2022-12-09T00:31:10.511Z,99391.00
2022-12-09T00:34:13.738Z,99406.69
2022-12-09T00:37:15.589Z,99393.28
2022-12-09T00:40:18.853Z,99394.44
2022-12-09T00:43:20.831Z,99396.84
2022-12-09T00:46:22.792Z,99396.69
2022-12-09T00:49:24.887Z,99389.31
2022-12-09T00:52:26.717Z,99396.16
2022-12-09T00:55:29.903Z,99388.59
2022-12-09T00:58:31.775Z,99390.66
2022-12-09T01:01:33.659Z,99393.97
2022-12-09T01:04:35.441Z,99391.03
2022-12-09T01:07:37.650Z,99383.66
2022-12-09T01:10:43.075Z,99390.84
2022-12-09T01:13:45.142Z,99385.69
2022-12-09T01:16:47.359Z,99391.22
2022-12-09T01:19:49.265Z,99382.00
2022-12-09T01:22:51.020Z,99391.22
2022-12-09T01:25:54.605Z,99387.00
2022-12-09T01:28:57.504Z,99396.19
2022-12-09T01:31:59.517Z,99398.41
2022-12-09T01:35:03.142Z,99401.34
2022-12-09T01:38:04.838Z,99401.69
2022-12-09T01:41:08.774Z,99389.88
2022-12-09T01:44:16.966Z,99395.25
2022-12-09T01:47:22.060Z,99387.66
2022-12-09T01:50:26.846Z,99384.16
2022-12-09T01:53:34.554Z,99383.63
2022-12-09T01:56:40.366Z,99382.50
2022-12-09T01:59:45.507Z,99383.97
2022-12-09T02:02:49.668Z,99381.94
2022-12-09T02:05:54.164Z,99372.19
2022-12-09T02:08:57.184Z,99373.81
2022-12-09T02:12:12.107Z,99367.38
2022-12-09T02:15:21.004Z,99368.28
2022-12-09T02:18:27.873Z,99372.13
2022-12-09T02:21:37.565Z,99361.81
2022-12-09T02:24:47.246Z,99365.69
2022-12-09T02:28:08.214Z,99362.72
2022-12-09T02:31:23.933Z,99355.94
2022-12-09T02:34:31.084Z,99361.28
2022-12-09T02:37:42.300Z,99349.09
2022-12-09T02:40:50.442Z,99342.84
2022-12-09T02:43:56.375Z,99345.03
2022-12-09T02:47:06.783Z,99336.94
2022-12-09T02:50:15.479Z,99334.34
2022-12-09T02:53:18.569Z,99326.63
2022-12-09T02:56:22.668Z,99325.53
2022-12-09T02:59:24.988Z,99327.56
2022-12-09T03:02:31.235Z,99320.19
2022-12-09T03:05:43.641Z,99311.72
2022-12-09T03:08:51.591Z,99311.91
2022-12-09T03:11:55.682Z,99310.06
2022-12-09T03:14:59.073Z,99299.75
2022-12-09T03:18:06.430Z,99302.88
2022-12-09T03:21:11.986Z,99299.38
2022-12-09T03:24:19.540Z,99294.22
2022-12-09T03:27:25.072Z,99288.13
2022-12-09T03:30:26.784Z,99285.72
2022-12-09T03:33:30.646Z,99286.28
2022-12-09T03:36:37.912Z,99276.72
2022-12-09T03:39:40.826Z,99283.16
2022-12-09T03:42:47.953Z,99283.69
2022-12-09T03:45:51.489Z,99282.97
2022-12-09T03:48:53.260Z,99275.59
2022-12-09T03:52:01.677Z,99278.19
2022-12-09T03:55:09.420Z,99271.56
2022-12-09T03:58:13.962Z,99274.09
2022-12-09T04:01:17.244Z,99268.22
2022-12-09T04:04:19.279Z,99275.38
2022-12-09T04:07:22.805Z,99272.47
2022-12-09T04:10:26.717Z,99269.91
2022-12-09T04:13:28.768Z,99271.75
2022-12-09T04:16:31.011Z,99268.41
2022-12-09T04:19:32.771Z,99275.78
2022-12-09T04:22:36.389Z,99274.50
2022-12-09T04:25:38.372Z,99268.97
2022-12-09T04:28:40.519Z,99264.78
2022-12-09T04:31:42.365Z,99258.88
2022-12-09T04:34:44.212Z,99254.66
2022-12-09T04:37:47.393Z,99261.25
2022-12-09T04:40:49.525Z,99265.50
2022-12-09T04:43:51.159Z,99256.47
2022-12-09T04:46:52.939Z,99261.81
2022-12-09T04:49:55.113Z,99255.53
2022-12-09T04:52:58.499Z,99256.63
2022-12-09T04:56:00.569Z,99259.94
2022-12-09T04:59:02.519Z,99250.72
2022-12-09T05:02:04.403Z,99241.88
2022-12-09T05:05:06.990Z,99244.47
2022-12-09T05:08:10.534Z,99248.50
2022-12-09T05:11:14.169Z,99238.34
2022-12-09T05:14:16.466Z,99247.03
2022-12-09T05:17:18.458Z,99247.34
2022-12-09T05:20:20.956Z,99241.03
2022-12-09T05:23:23.906Z,99250.25
2022-12-09T05:26:26.423Z,99241.22
2022-12-09T05:29:28.803Z,99233.81
2022-12-09T05:32:32.885Z,99232.94
2022-12-09T05:35:42.598Z,99232.00
2022-12-09T05:38:52.646Z,99226.78
2022-12-09T05:41:54.896Z,99225.72
2022-12-09T05:44:57.032Z,99219.59
2022-12-09T05:47:59.078Z,99217.41
2022-12-09T05:51:03.696Z,99216.69
2022-12-09T05:54:07.348Z,99214.88
2022-12-09T05:57:09.455Z,99207.13
2022-12-09T06:00:14.148Z,99205.88
2022-12-09T06:03:16.904Z,99204.06
2022-12-09T06:06:22.743Z,99197.13
2022-12-09T06:09:26.605Z,99203.75
2022-12-09T06:12:29.230Z,99200.25
2022-12-09T06:15:33.519Z,99199.53
2022-12-09T06:18:36.917Z,99194.75
2022-12-09T06:21:39.752Z,99197.88
2022-12-09T06:24:43.253Z,99191.81
2022-12-09T06:27:45.130Z,99190.69
2022-12-09T06:30:47.108Z,99188.06
2022-12-09T06:33:58.340Z,99193.19
2022-12-09T06:37:00.872Z,99193.91
2022-12-09T06:40:04.608Z,99180.88
2022-12-09T06:43:06.818Z,99185.53
2022-12-09T06:46:12.984Z,99193.44
2022-12-09T06:49:15.112Z,99200.63
2022-12-09T06:52:17.168Z,99195.47
2022-12-09T06:55:20.354Z,99189.06
2022-12-09T06:58:22.192Z,99185.72
2022-12-09T07:01:26.199Z,99184.09
2022-12-09T07:04:29.264Z,99181.31
2022-12-09T07:07:31.906Z,99181.16
2022-12-09T07:10:36.153Z,99192.03
2022-12-09T07:13:38.108Z,99183.34
2022-12-09T07:16:40.748Z,99189.78
2022-12-09T07:19:45.964Z,99190.72
2022-12-09T07:22:48.426Z,99200.66
2022-12-09T07:25:57.159Z,99198.09
2022-12-09T07:29:02.298Z,99200.66
2022-12-09T07:32:04.775Z,99195.34
2022-12-09T07:35:08.200Z,99198.44
2022-12-09T07:38:10.362Z,99197.53
2022-12-09T07:41:18.337Z,99189.22
2022-12-09T07:44:20.593Z,99180.41
2022-12-09T07:47:22.480Z,99184.84
2022-12-09T07:50:25.347Z,99184.28
2022-12-09T07:53:27.780Z,99185.38
2022-12-09T07:56:31.474Z,99183.19
2022-12-09T07:59:33.655Z,99188.50
2022-12-09T08:02:36.028Z,99190.00
2022-12-09T08:05:38.380Z,99185.19
2022-12-09T08:08:41.049Z,99183.88
2022-12-09T08:11:44.592Z,99172.66
2022-12-09T08:14:46.456Z,99175.06
2022-12-09T08:17:48.295Z,99168.56
2022-12-09T08:20:50.427Z,99175.38
2022-12-09T08:23:53.140Z,99176.66
2022-12-09T08:26:57.162Z,99172.22
2022-12-09T08:29:59.272Z,99178.69
2022-12-09T08:33:01.647Z,99182.19
2022-12-09T08:36:07.723Z,99177.19
2022-12-09T08:39:10.905Z,99173.84
2022-12-09T08:42:14.147Z,99171.44
2022-12-09T08:45:16.285Z,99174.16
2022-12-09T08:48:18.406Z,99168.25
2022-12-09T08:51:20.430Z,99163.56
2022-12-09T08:54:23.197Z,99164.34
2022-12-09T08:57:28.742Z,99164.34
2022-12-09T09:00:31.111Z,99161.38
2022-12-09T09:03:36.404Z,99162.31
2022-12-09T09:06:39.493Z,99166.13
2022-12-09T09:09:41.514Z,99159.41
2022-12-09T09:12:45.603Z,99157.72
2022-12-09T09:15:47.978Z,99156.38
2022-12-09T09:18:51.575Z,99149.75
2022-12-09T09:21:54.679Z,99140.78
2022-12-09T09:24:57.530Z,99142.97
2022-12-09T09:28:00.978Z,99142.13
2022-12-09T09:31:05.362Z,99138.00
2022-12-09T09:34:07.583Z,99140.72
2022-12-09T09:37:11.422Z,99139.81
2022-12-09T09:40:14.445Z,99135.16
2022-12-09T09:43:20.726Z,99138.94
2022-12-09T09:46:34.456Z,99123.75
2022-12-09T09:49:44.613Z,99123.38
2022-12-09T09:52:46.746Z,99121.00
2022-12-09T09:55:54.005Z,99114.22
2022-12-09T09:59:16.845Z,99111.78
2022-12-09T10:02:29.999Z,99108.41
2022-12-09T10:05:35.751Z,99106.28
2022-12-09T10:08:44.851Z,99102.94
2022-12-09T10:11:57.661Z,99107.03
2022-12-09T10:15:08.945Z,99098.19
2022-12-09T10:18:19.572Z,99094.59
2022-12-09T10:21:22.628Z,99106.34
2022-12-09T10:24:29.061Z,99107.59
2022-12-09T10:27:37.384Z,99106.69
2022-12-09T10:30:44.482Z,99100.00
2022-12-09T10:33:47.185Z,99095.44
2022-12-09T10:36:49.407Z,99097.09
2022-12-09T10:39:55.584Z,99106.59
2022-12-09T10:43:17.678Z,99094.50
2022-12-09T10:46:24.534Z,99093.50
2022-12-09T10:49:27.170Z,99089.66
2022-12-09T10:52:32.481Z,99088.19
2022-12-09T10:56:00.232Z,99094.59
2022-12-09T10:59:11.430Z,99088.63
2022-12-09T11:02:21.168Z,99079.16
2022-12-09T11:05:26.891Z,99078.06
2022-12-09T11:08:29.537Z,99075.16
2022-12-09T11:11:41.174Z,99085.25
2022-12-09T11:14:51.785Z,99090.63
2022-12-09T11:18:00.523Z,99084.16
2022-12-09T11:21:05.063Z,99072.88
2022-12-09T11:24:20.333Z,99083.09
2022-12-09T11:27:31.911Z,99073.94
2022-12-09T11:30:34.929Z,99067.19
2022-12-09T11:33:48.309Z,99062.88
2022-12-09T11:36:52.463Z,99068.03
2022-12-09T11:39:54.268Z,99062.03
2022-12-09T11:42:57.054Z,99054.19
2022-12-09T11:45:59.406Z,99054.72
2022-12-09T11:49:06.203Z,99044.44
2022-12-09T11:52:23.912Z,99051.22
2022-12-09T11:55:27.634Z,99051.03
2022-12-09T11:58:36.377Z,99043.44
2022-12-09T12:01:47.042Z,99045.59
2022-12-09T12:04:55.871Z,99042.44
2022-12-09T12:08:06.681Z,99053.38
2022-12-09T12:11:15.448Z,99042.53
2022-12-09T12:14:22.858Z,99045.25
2022-12-09T12:17:32.046Z,99045.88
2022-12-09T12:21:00.586Z,99043.75
2022-12-09T12:24:34.228Z,99039.50
2022-12-09T12:27:48.312Z,99041.81
2022-12-09T12:30:56.833Z,99039.84
2022-12-09T12:34:24.217Z,99043.34
2022-12-09T12:37:43.458Z,99049.09
2022-12-09T12:40:55.221Z,99039.06
2022-12-09T12:44:25.633Z,99040.75
2022-12-09T12:47:34.233Z,99040.31
2022-12-09T12:50:52.649Z,99036.81
2022-12-09T12:54:09.141Z,99020.94
2022-12-09T12:57:19.489Z,99034.81
2022-12-09T13:00:24.440Z,99030.94
2022-12-09T13:03:33.084Z,99024.28
2022-12-09T13:06:41.628Z,99037.44
2022-12-09T13:09:51.318Z,99024.59
2022-12-09T13:12:55.534Z,99027.03
2022-12-09T13:16:00.778Z,99028.84
2022-12-09T13:19:07.042Z,99024.72
2022-12-09T13:22:16.691Z,99027.56
2022-12-09T13:25:35.250Z,99029.47
2022-12-09T13:28:47.108Z,99012.06
2022-12-09T13:31:57.251Z,99021.19
2022-12-09T13:35:06.431Z,99016.31
2022-12-09T13:38:26.139Z,99009.59
2022-12-09T13:42:03.022Z,99014.47
2022-12-09T13:45:07.115Z,99015.97
2022-12-09T13:48:50.859Z,99008.66
2022-12-09T13:51:55.298Z,99014.09
2022-12-09T13:54:57.884Z,99014.41
2022-12-09T13:58:25.698Z,99017.34
2022-12-09T14:01:35.267Z,99019.09
2022-12-09T14:04:46.359Z,99022.19
2022-12-09T14:07:51.378Z,99016.84
2022-12-09T14:10:53.972Z,99018.84
2022-12-09T14:14:39.391Z,99017.34
2022-12-09T14:18:01.978Z,99015.50
2022-12-09T14:21:28.504Z,99029.13
2022-12-09T14:24:35.537Z,99029.88
2022-12-09T14:27:38.048Z,99024.63
2022-12-09T14:30:50.750Z,99025.09
2022-12-09T14:33:52.843Z,99026.03
2022-12-09T14:37:05.706Z,99026.03
2022-12-09T14:40:26.543Z,99033.47
2022-12-09T14:43:38.468Z,99040.97
2022-12-09T14:46:43.385Z,99045.69
2022-12-09T14:49:49.081Z,99038.94
2022-12-09T14:52:54.216Z,99047.16
2022-12-09T14:55:56.213Z,99043.09
2022-12-09T14:59:03.159Z,99054.06
2022-12-09T15:02:20.105Z,99049.16
2022-12-09T15:05:24.041Z,99059.06
2022-12-09T15:08:31.509Z,99062.13
2022-12-09T15:11:35.689Z,99061.31
2022-12-09T15:14:38.211Z,99061.00
2022-12-09T15:17:44.473Z,99066.63
2022-12-09T15:20:50.373Z,99062.34
2022-12-09T15:23:52.360Z,99067.81
2022-12-09T15:26:59.795Z,99060.63
2022-12-09T15:30:20.369Z,99065.19
2022-12-09T15:33:24.230Z,99072.81
2022-12-09T15:36:30.218Z,99069.28
2022-12-09T15:39:38.320Z,99073.88
2022-12-09T15:42:43.842Z,99082.84
2022-12-09T15:45:45.664Z,99072.91
2022-12-09T15:48:52.800Z,99082.97
2022-12-09T15:51:56.357Z,99083.41
2022-12-09T15:55:00.832Z,99087.88
2022-12-09T15:58:06.245Z,99085.44
2022-12-09T16:01:08.963Z,99088.63
2022-12-09T16:04:15.793Z,99085.47
2022-12-09T16:07:20.199Z,99087.03
2022-12-09T16:10:26.961Z,99091.81
2022-12-09T16:13:29.846Z,99092.91
2022-12-09T16:16:39.010Z,99091.59
2022-12-09T16:19:42.163Z,99094.50
2022-12-09T16:22:43.908Z,99084.88
2022-12-09T16:25:49.336Z,99094.09
2022-12-09T16:28:55.497Z,99089.28
2022-12-09T16:32:30.320Z,99092.66
2022-12-09T16:35:37.587Z,99093.25
2022-12-09T16:38:39.641Z,99093.59
2022-12-09T16:41:56.690Z,99086.47
2022-12-09T16:45:24.313Z,99091.75
2022-12-09T16:48:27.593Z,99090.00
2022-12-09T16:51:30.958Z,99090.13
2022-12-09T16:54:32.965Z,99094.47
2022-12-09T16:57:34.803Z,99094.56
2022-12-09T17:00:37.692Z,99093.88
2022-12-09T17:03:43.944Z,99101.13
2022-12-09T17:06:47.139Z,99101.16
2022-12-09T17:09:48.973Z,99100.91
2022-12-09T17:12:50.905Z,99099.56
2022-12-09T17:15:58.106Z,99096.47
2022-12-09T17:19:00.134Z,99103.81
2022-12-09T17:22:03.414Z,99101.38
2022-12-09T17:25:08.064Z,99099.00
2022-12-09T17:28:11.315Z,99103.72
2022-12-09T17:31:16.548Z,99101.50
2022-12-09T17:34:18.785Z,99104.97
2022-12-09T17:37:24.642Z,99106.66
2022-12-09T17:40:26.833Z,99115.66
2022-12-09T17:43:28.554Z,99114.59
2022-12-09T17:46:30.329Z,99125.22
2022-12-09T17:49:32.045Z,99130.72
2022-12-09T17:52:35.709Z,99137.56
2022-12-09T17:55:37.784Z,99128.53
2022-12-09T17:58:43.942Z,99130.72
2022-12-09T18:01:47.982Z,99131.03
2022-12-09T18:04:49.664Z,99135.47
2022-12-09T18:07:52.924Z,99133.97
2022-12-09T18:10:54.898Z,99140.06
2022-12-09T18:13:56.833Z,99137.31
2022-12-09T18:16:59.112Z,99138.97
2022-12-09T18:20:01.114Z,99130.19
2022-12-09T18:23:04.585Z,99148.31
2022-12-09T18:26:07.181Z,99142.81
2022-12-09T18:29:10.840Z,99135.38
2022-12-09T18:32:12.800Z,99138.22
2022-12-09T18:35:16.002Z,99143.66
2022-12-09T18:38:19.106Z,99141.22
2022-12-09T18:41:23.472Z,99141.81
2022-12-09T18:44:25.686Z,99149.00
2022-12-09T18:47:27.728Z,99152.94
2022-12-09T18:50:29.619Z,99157.88
2022-12-09T18:53:32.665Z,99153.91
2022-12-09T18:56:35.543Z,99153.03
2022-12-09T18:59:37.266Z,99152.53
2022-12-09T19:02:39.152Z,99156.03
2022-12-09T19:05:42.294Z,99156.59
2022-12-09T19:08:45.434Z,99160.03
2022-12-09T19:11:49.329Z,99154.13
2022-12-09T19:14:51.052Z,99156.09
2022-12-09T19:17:52.891Z,99166.72
2022-12-09T19:20:54.856Z,99171.31
2022-12-09T19:23:58.126Z,99167.72
2022-12-09T19:26:59.954Z,99166.81
2022-12-09T19:30:01.722Z,99169.41
2022-12-09T19:33:04.081Z,99176.81
2022-12-09T19:36:06.774Z,99174.22
2022-12-09T19:39:11.398Z,99167.72
2022-12-09T19:42:14.086Z,99166.13
2022-12-09T19:45:16.056Z,99165.22
2022-12-09T19:48:17.805Z,99165.81
2022-12-09T19:51:20.298Z,99169.47
2022-12-09T19:54:28.252Z,99172.25
2022-12-09T19:57:30.363Z,99172.25
2022-12-09T20:00:35.597Z,99179.41
2022-12-09T20:03:41.702Z,99173.81
2022-12-09T20:06:44.182Z,99173.41
2022-12-09T20:09:47.597Z,99172.13
2022-12-09T20:12:49.414Z,99183.75
2022-12-09T20:15:51.204Z,99187.91
2022-12-09T20:18:54.657Z,99192.34
2022-12-09T20:21:56.501Z,99186.41
2022-12-09T20:24:59.559Z,99198.94
2022-12-09T20:28:02.114Z,99204.53
2022-12-09T20:31:05.154Z,99198.53
2022-12-09T20:34:09.246Z,99201.28
2022-12-09T20:37:11.011Z,99210.53
2022-12-09T20:40:14.334Z,99204.28
2022-12-09T20:43:16.445Z,99202.69
2022-12-09T20:46:20.762Z,99208.25
2022-12-09T20:49:26.496Z,99211.91
2022-12-09T20:52:28.481Z,99214.09
2022-12-09T20:55:31.501Z,99218.22
2022-12-09T20:58:35.745Z,99213.28
2022-12-09T21:01:38.668Z,99212.75
2022-12-09T21:04:40.539Z,99214.25
2022-12-09T21:07:42.637Z,99228.66
2022-12-09T21:10:45.711Z,99228.00
2022-12-09T21:13:49.927Z,99231.50
2022-12-09T21:16:52.166Z,99239.03
2022-12-09T21:19:53.935Z,99235.94
2022-12-09T21:23:31.842Z,99245.38
2022-12-09T21:26:19.098Z,99240.88
2022-12-09T21:29:22.319Z,99244.44
2022-12-09T21:32:26.426Z,99233.19
2022-12-09T21:35:28.249Z,99235.94
2022-12-09T21:38:31.349Z,99240.78
2022-12-09T21:41:36.404Z,99249.22
2022-12-09T21:44:40.647Z,99251.06
2022-12-09T21:47:42.590Z,99244.44
2022-12-09T21:50:45.125Z,99247.75
2022-12-09T21:53:47.758Z,99243.13
2022-12-09T21:56:51.090Z,99253.88
2022-12-09T21:59:53.275Z,99247.59
2022-12-09T22:02:55.046Z,99255.53
2022-12-09T22:05:59.400Z,99248.72
2022-12-09T22:09:02.687Z,99249.09
2022-12-09T22:12:06.360Z,99245.25
2022-12-09T22:15:10.831Z,99250.88
2022-12-09T22:18:12.532Z,99243.94
2022-12-09T22:26:04.392Z,99248.06
2022-12-09T22:29:07.767Z,99254.38
2022-12-09T22:32:09.674Z,99251.94
2022-12-09T22:35:12.129Z,99256.06
2022-12-09T22:38:14.959Z,99254.44
2022-12-09T22:41:18.836Z,99264.91
2022-12-09T22:44:22.834Z,99252.91
2022-12-09T22:47:24.584Z,99262.47
2022-12-09T22:50:26.287Z,99261.75
2022-12-09T22:53:27.922Z,99268.06
2022-12-09T22:56:30.102Z,99265.72
2022-12-09T22:59:34.506Z,99270.25
2022-12-09T23:02:38.594Z,99275.63
2022-12-09T23:05:40.571Z,99266.97
2022-12-09T23:08:43.953Z,99268.47
2022-12-09T23:11:46.056Z,99270.88
2022-12-09T23:14:49.165Z,99274.56
2022-12-09T23:17:50.787Z,99274.25
2022-12-09T23:20:52.474Z,99276.06
2022-12-09T23:23:55.530Z,99270.22
2022-12-09T23:26:57.170Z,99276.06
2022-12-09T23:30:00.161Z,99274.03
2022-12-09T23:33:01.825Z,99270.78
2022-12-09T23:36:07.620Z,99282.03
2022-12-09T23:39:11.203Z,99269.66
2022-12-09T23:42:12.872Z,99273.13
2022-12-09T23:45:16.088Z,99270.47
2022-12-09T23:48:17.684Z,99273.88
2022-12-09T23:51:21.936Z,99278.31
2022-12-09T23:54:23.587Z,99276.91
2022-12-09T23:57:25.244Z,99273.78
